Terminal Aerodrome Forecast
Issued by NWS Sterling, VA

Current Version | Previous Version | Text Only | Print | Product List | Glossary Off
Versions: 1 2 3 4 5 6 7 8 9 10 11 12 13 14

000
FTUS41 KLWX 231100
TAFMRB
TAF
KMRB 231133Z 2312/2412 00000KT 4SM BR SKC
     FM231500 VRB03KT P6SM SCT090
     FM231700 23007KT P6SM BKN100
     FM232000 24008KT P6SM VCTS SCT040CB BKN080
     FM232300 29008KT P6SM -TSRA SCT040CB BKN070
     FM240100 31008KT P6SM -SHRA VCTS BKN060CB
     FM240400 32005KT P6SM BKN060=

USA.gov is the U.S. government's official web portal to all federal, state and local government web resources and services.